Time;durP1;ratioP1;P1;durP2;ratioP2;P2;SDS_P1;SDS_P2;PMS_P1;PMS_P2;Temp;Humidity;BMP_temperature;BMP_pressure;BME280_temperature;BME280_humidity;BME280_pressure;Samples;Min_cycle;Max_cycle;Signal;HPM_P1;HPM_P2
2022/07/20 00:02:26;;;;;;;3.10;1.52;;;27.00;33.80;;;;;;2397947;52;20972;-69
2022/07/20 00:04:52;;;;;;;2.85;1.50;;;26.90;33.90;;;;;;2344296;54;20928;-69
2022/07/20 00:07:44;;;;;;;4.05;2.15;;;26.90;34.20;;;;;;2340154;54;21010;-70
2022/07/20 00:12:55;;;;;;;5.12;3.00;;;26.80;34.30;;;;;;2342736;53;20929;-70
2022/07/20 00:15:23;;;;;;;7.87;3.42;;;26.70;34.30;;;;;;2583811;52;20913;-73
2022/07/20 00:17:49;;;;;;;5.15;2.83;;;26.70;34.50;;;;;;2338826;54;20996;-69
2022/07/20 00:20:17;;;;;;;4.57;2.37;;;26.60;34.60;;;;;;2449899;52;20947;-69
2022/07/20 00:22:53;;;;;;;3.70;2.08;;;26.60;34.80;;;;;;2342186;54;20973;-70
2022/07/20 00:25:31;;;;;;;3.70;2.22;;;26.60;35.80;;;;;;2466104;52;20968;-72
2022/07/20 00:27:59;;;;;;;5.78;2.30;;;26.50;35.70;;;;;;2391985;53;20965;-70
2022/07/20 00:30:25;;;;;;;3.95;1.75;;;26.50;35.20;;;;;;2340702;54;22009;-69
2022/07/20 00:32:52;;;;;;;3.78;2.12;;;26.50;35.20;;;;;;2590922;52;20972;-69
2022/07/20 00:35:18;;;;;;;4.18;1.80;;;26.40;35.30;;;;;;2471033;52;20969;-69
2022/07/20 00:37:45;;;;;;;3.53;1.98;;;26.40;35.40;;;;;;2342789;54;20929;-74
2022/07/20 00:40:21;;;;;;;3.95;1.83;;;26.30;35.50;;;;;;2379029;53;21048;-71
2022/07/20 00:42:51;;;;;;;4.32;1.90;;;26.30;35.90;;;;;;2343830;54;20992;-72
2022/07/20 00:45:17;;;;;;;3.40;1.77;;;26.30;36.00;;;;;;2471697;52;21726;-74
2022/07/20 00:48:18;;;;;;;2.80;1.70;;;26.30;35.80;;;;;;2344548;54;20929;-72
2022/07/20 00:50:46;;;;;;;4.20;1.70;;;26.20;36.40;;;;;;2532281;52;21028;-72
2022/07/20 00:53:12;;;;;;;2.60;1.50;;;26.20;35.90;;;;;;2340727;53;21040;-74
2022/07/20 00:55:39;;;;;;;3.47;1.62;;;26.20;36.00;;;;;;2492527;53;20976;-73
2022/07/20 00:58:14;;;;;;;3.92;1.70;;;26.20;36.20;;;;;;2589386;52;20990;-73
2022/07/20 01:00:41;;;;;;;3.58;1.70;;;26.20;36.60;;;;;;2339737;54;20952;-72
2022/07/20 01:03:08;;;;;;;4.53;1.40;;;26.10;36.30;;;;;;2336574;54;20960;-71
2022/07/20 01:05:35;;;;;;;2.87;1.67;;;26.10;36.40;;;;;;2553661;52;20997;-71
2022/07/20 01:08:50;;;;;;;3.40;1.98;;;26.10;36.50;;;;;;2340326;54;21762;-73
2022/07/20 01:11:17;;;;;;;2.97;1.58;;;26.00;37.00;;;;;;2338526;54;20924;-71
2022/07/20 01:13:44;;;;;;;3.10;1.73;;;26.00;36.60;;;;;;2319181;53;21396;-72
2022/07/20 01:16:11;;;;;;;7.20;1.73;;;26.00;36.70;;;;;;2316951;54;20966;-71
2022/07/20 01:18:38;;;;;;;3.33;1.70;;;26.00;37.00;;;;;;2317343;53;21050;-71
2022/07/20 01:21:06;;;;;;;4.10;1.90;;;26.00;37.00;;;;;;2551830;53;21788;-72
2022/07/20 01:23:33;;;;;;;3.15;1.65;;;25.90;36.90;;;;;;2319029;54;21764;-77
2022/07/20 01:25:59;;;;;;;3.45;1.60;;;25.90;36.90;;;;;;2317593;55;20938;-73
2022/07/20 01:28:27;;;;;;;3.55;1.67;;;25.90;37.00;;;;;;2310974;54;20926;-71
2022/07/20 01:30:54;;;;;;;4.03;2.05;;;25.90;37.10;;;;;;2385346;54;20974;-72
2022/07/20 01:33:26;;;;;;;3.78;2.10;;;25.90;37.40;;;;;;2314342;54;20951;-71
2022/07/20 01:35:52;;;;;;;3.70;1.90;;;25.90;37.70;;;;;;2477037;53;20953;-71
2022/07/20 01:38:19;;;;;;;4.03;2.00;;;25.90;37.40;;;;;;2551039;53;21059;-73
2022/07/20 01:40:45;;;;;;;3.30;1.67;;;25.90;37.60;;;;;;2315993;54;20992;-71
2022/07/20 01:43:24;;;;;;;2.80;1.60;;;25.90;37.50;;;;;;2306977;54;21701;-71
2022/07/20 01:45:51;;;;;;;3.58;1.80;;;25.90;37.90;;;;;;2355690;54;20959;-73
2022/07/20 01:48:17;;;;;;;4.25;2.00;;;25.80;37.50;;;;;;2319891;54;20957;-71
2022/07/20 01:50:49;;;;;;;3.40;1.90;;;25.80;37.50;;;;;;2316315;54;21003;-71
2022/07/20 01:53:16;;;;;;;5.95;1.90;;;25.80;37.70;;;;;;2316068;54;20939;-71
2022/07/20 01:55:49;;;;;;;3.12;1.62;;;25.80;37.60;;;;;;2325154;54;21004;-71
2022/07/20 01:58:16;;;;;;;3.15;1.80;;;25.70;37.60;;;;;;2319508;54;21034;-71
2022/07/20 02:00:43;;;;;;;3.30;1.70;;;25.70;37.70;;;;;;2561822;53;21034;-71
2022/07/20 02:03:09;;;;;;;4.32;2.10;;;25.70;37.70;;;;;;2557711;53;20951;-74
2022/07/20 02:05:36;;;;;;;5.50;1.95;;;25.70;37.80;;;;;;2558056;53;20926;-71
2022/07/20 02:08:03;;;;;;;4.70;1.80;;;25.70;37.90;;;;;;2328914;54;21019;-72
2022/07/20 02:10:29;;;;;;;2.78;1.60;;;25.60;37.80;;;;;;2521665;53;20955;-71
2022/07/20 02:12:55;;;;;;;2.90;1.70;;;25.70;38.00;;;;;;2571211;53;21146;-73
2022/07/20 02:18:10;;;;;;;3.72;1.70;;;25.60;38.00;;;;;;2316150;55;20995;-76
2022/07/20 02:20:36;;;;;;;3.62;1.75;;;25.60;38.10;;;;;;2447200;53;20979;-71
2022/07/20 02:23:07;;;;;;;3.75;1.90;;;25.60;38.30;;;;;;2317278;55;21775;-74
2022/07/20 02:25:35;;;;;;;4.47;2.00;;;25.50;38.60;;;;;;2313462;55;21054;-73
2022/07/20 02:28:06;;;;;;;3.70;1.80;;;25.50;38.40;;;;;;2295679;55;21025;-71
2022/07/20 02:30:32;;;;;;;3.20;1.62;;;25.50;38.40;;;;;;2298771;54;21809;-70
2022/07/20 02:33:00;;;;;;;3.15;1.60;;;25.50;38.40;;;;;;2307491;55;20951;-71
2022/07/20 02:35:39;;;;;;;4.57;1.90;;;25.40;38.30;;;;;;2355068;52;21398;-71
2022/07/20 02:38:06;;;;;;;3.12;1.60;;;25.40;38.70;;;;;;2344801;54;20904;-71
2022/07/20 02:40:32;;;;;;;3.08;1.70;;;25.40;38.40;;;;;;2426684;52;21063;-71
2022/07/20 02:42:59;;;;;;;2.67;1.48;;;25.40;38.50;;;;;;2338751;54;20980;-72
2022/07/20 02:45:25;;;;;;;3.60;1.73;;;25.30;38.50;;;;;;2344532;54;20901;-71
2022/07/20 02:48:02;;;;;;;4.47;1.85;;;25.30;38.60;;;;;;2344269;54;21075;-71
2022/07/20 02:50:33;;;;;;;3.47;1.77;;;25.30;38.90;;;;;;2590764;52;20921;-71
2022/07/20 02:53:00;;;;;;;6.43;2.23;;;25.30;38.70;;;;;;2344292;54;20991;-72
2022/07/20 02:55:28;;;;;;;3.25;1.80;;;25.30;38.80;;;;;;2588884;52;21001;-71
2022/07/20 02:57:56;;;;;;;3.12;1.65;;;25.20;38.80;;;;;;2343242;54;20988;-71
2022/07/20 03:00:23;;;;;;;2.95;1.80;;;25.20;38.80;;;;;;2411310;52;20927;-73
2022/07/20 03:02:50;;;;;;;4.12;1.85;;;25.20;38.80;;;;;;2343057;54;20953;-74
2022/07/20 03:05:16;;;;;;;3.17;1.65;;;25.20;38.90;;;;;;2485991;52;20920;-71
2022/07/20 03:07:42;;;;;;;4.85;1.92;;;25.20;38.90;;;;;;2338831;54;20938;-73
2022/07/20 03:10:18;;;;;;;6.18;2.00;;;25.10;38.90;;;;;;2487130;52;21036;-74
2022/07/20 03:13:30;;;;;;;3.17;1.60;;;25.10;39.20;;;;;;2532639;52;20965;-71
2022/07/20 03:15:56;;;;;;;3.33;1.92;;;25.10;39.30;;;;;;2509034;52;21001;-71
2022/07/20 03:18:23;;;;;;;3.47;2.00;;;25.00;38.90;;;;;;2344528;54;20913;-71
2022/07/20 03:20:50;;;;;;;3.53;1.70;;;25.00;39.10;;;;;;2343364;54;20929;-74
2022/07/20 03:23:17;;;;;;;5.70;1.95;;;25.00;39.10;;;;;;2343395;54;20903;-71
2022/07/20 03:25:44;;;;;;;4.10;1.73;;;25.00;39.20;;;;;;2327788;54;21085;-75
2022/07/20 03:28:13;;;;;;;4.00;2.17;;;25.00;39.20;;;;;;2328542;54;20952;-71
2022/07/20 03:30:40;;;;;;;4.45;2.45;;;25.00;39.30;;;;;;2592633;53;20989;-71
2022/07/20 03:33:31;;;;;;;3.28;1.87;;;25.00;39.30;;;;;;2298020;54;22101;-71
2022/07/20 03:36:16;;;;;;;4.50;2.03;;;25.00;39.70;;;;;;2328807;53;21938;-72
2022/07/20 03:38:42;;;;;;;3.15;1.87;;;24.90;39.60;;;;;;2317676;53;21270;-71
2022/07/20 03:41:10;;;;;;;6.45;1.90;;;24.90;39.30;;;;;;2538923;53;21118;-73
2022/07/20 03:43:37;;;;;;;3.55;1.85;;;24.90;39.40;;;;;;2322483;53;20955;-70
2022/07/20 03:46:04;;;;;;;3.80;2.15;;;24.80;39.40;;;;;;2311708;54;20973;-72
2022/07/20 03:48:36;;;;;;;5.03;2.08;;;24.80;39.40;;;;;;2546606;53;20960;-71
2022/07/20 03:51:03;;;;;;;3.77;1.90;;;24.80;39.60;;;;;;2558022;53;21821;-73
2022/07/20 03:53:31;;;;;;;2.85;1.75;;;24.80;39.60;;;;;;2329600;54;21772;-71
2022/07/20 03:55:59;;;;;;;3.60;1.90;;;24.80;39.70;;;;;;2319042;54;20941;-71
2022/07/20 03:58:38;;;;;;;3.60;1.80;;;24.80;39.80;;;;;;2317186;54;20949;-74
2022/07/20 04:01:04;;;;;;;3.62;2.10;;;24.70;40.20;;;;;;2305523;54;21062;-71
2022/07/20 04:03:31;;;;;;;4.37;2.28;;;24.70;39.80;;;;;;2331037;55;20964;-71
2022/07/20 04:05:57;;;;;;;3.12;1.87;;;24.80;40.00;;;;;;2566459;53;20964;-70
2022/07/20 04:08:24;;;;;;;2.83;1.70;;;24.70;39.90;;;;;;2311625;54;20947;-71
2022/07/20 04:10:50;;;;;;;3.60;1.87;;;24.70;40.00;;;;;;2585888;53;21113;-71
2022/07/20 04:13:17;;;;;;;3.30;1.95;;;24.70;40.10;;;;;;2325891;54;21047;-72
2022/07/20 04:15:43;;;;;;;5.72;2.10;;;24.70;40.10;;;;;;2343483;54;20980;-71
2022/07/20 04:18:16;;;;;;;3.03;1.90;;;24.60;40.10;;;;;;2344629;54;20933;-70
2022/07/20 04:23:52;;;;;;;3.15;1.45;;;24.60;40.30;;;;;;2347085;53;20171;-70
2022/07/20 04:26:20;;;;;;;3.70;1.80;;;24.60;39.90;;;;;;2344449;54;20928;-72
2022/07/20 04:28:47;;;;;;;3.30;1.85;;;24.60;40.10;;;;;;2591433;53;20981;-71
2022/07/20 04:31:13;;;;;;;4.43;1.70;;;24.50;40.70;;;;;;2343728;54;21044;-68
2022/07/20 04:33:40;;;;;;;3.28;2.05;;;24.50;40.10;;;;;;2344146;54;20988;-73
2022/07/20 04:36:10;;;;;;;3.42;1.60;;;24.40;40.10;;;;;;2343155;54;20925;-69
2022/07/20 04:38:37;;;;;;;3.95;1.95;;;24.40;40.20;;;;;;2420414;53;21033;-69
2022/07/20 04:41:04;;;;;;;3.62;2.00;;;24.40;40.30;;;;;;2342747;54;21724;-71
2022/07/20 04:43:31;;;;;;;3.22;1.90;;;24.40;40.40;;;;;;2343460;54;20953;-71
2022/07/20 04:45:58;;;;;;;3.90;1.95;;;24.40;41.20;;;;;;2345092;54;21008;-74
2022/07/20 04:48:25;;;;;;;3.12;1.65;;;24.40;40.70;;;;;;2318863;53;21005;-71
2022/07/20 04:51:05;;;;;;;4.50;1.75;;;24.40;40.80;;;;;;2545426;53;20943;-69
2022/07/20 04:53:32;;;;;;;3.05;1.73;;;24.40;41.20;;;;;;2334302;55;20961;-72
2022/07/20 04:55:58;;;;;;;5.07;2.20;;;24.50;41.00;;;;;;2338620;55;20952;-73
2022/07/20 04:58:25;;;;;;;4.25;2.25;;;24.50;41.10;;;;;;2553821;53;21023;-73
2022/07/20 05:00:55;;;;;;;3.72;2.10;;;24.50;41.20;;;;;;2375885;53;21503;-71
2022/07/20 05:03:21;;;;;;;3.35;2.05;;;24.40;41.20;;;;;;2330283;54;20971;-72
2022/07/20 05:05:48;;;;;;;3.47;2.00;;;24.50;41.40;;;;;;2337357;54;21000;-71
2022/07/20 05:08:14;;;;;;;4.47;2.20;;;24.50;41.50;;;;;;2590755;52;20913;-72
2022/07/20 05:10:44;;;;;;;4.05;2.20;;;24.50;41.60;;;;;;2465601;52;20989;-70
2022/07/20 05:13:10;;;;;;;5.12;2.40;;;24.50;41.70;;;;;;2341004;54;20936;-73
2022/07/20 05:15:36;;;;;;;3.72;2.30;;;24.60;41.90;;;;;;2340140;54;21040;-71
2022/07/20 05:18:03;;;;;;;3.75;2.33;;;24.60;41.90;;;;;;2344003;54;20909;-71
2022/07/20 05:20:29;;;;;;;5.07;2.58;;;24.60;42.00;;;;;;2341941;54;20893;-72
2022/07/20 05:22:56;;;;;;;4.53;3.10;;;24.60;42.00;;;;;;2585467;52;21719;-73
2022/07/20 05:25:22;;;;;;;4.55;2.80;;;24.60;42.10;;;;;;2341617;54;20979;-74
2022/07/20 05:27:51;;;;;;;3.70;2.42;;;24.70;42.30;;;;;;2343476;54;20929;-71
2022/07/20 05:30:21;;;;;;;4.18;2.50;;;24.70;42.20;;;;;;2422210;52;20952;-71
2022/07/20 05:32:47;;;;;;;5.37;2.85;;;24.70;42.40;;;;;;2342185;53;20924;-75
2022/07/20 05:35:14;;;;;;;4.20;2.85;;;24.80;42.30;;;;;;2345845;54;21922;-72
2022/07/20 05:37:41;;;;;;;4.05;2.30;;;24.80;42.30;;;;;;2335676;54;20975;-72
2022/07/20 05:40:09;;;;;;;3.60;2.35;;;24.80;42.40;;;;;;2342262;54;20963;-74
2022/07/20 05:42:36;;;;;;;4.30;2.72;;;24.90;43.30;;;;;;2406910;53;20960;-72
2022/07/20 05:45:02;;;;;;;3.47;2.10;;;24.90;42.60;;;;;;2589209;52;20992;-71
2022/07/20 05:47:29;;;;;;;4.60;2.70;;;25.00;42.60;;;;;;2387811;53;20928;-70
2022/07/20 05:49:57;;;;;;;4.80;2.22;;;25.00;42.70;;;;;;2342018;53;20973;-73
2022/07/20 05:52:24;;;;;;;4.07;2.37;;;25.10;43.40;;;;;;2346036;54;20944;-71
2022/07/20 05:54:53;;;;;;;3.60;2.17;;;25.10;42.70;;;;;;2325085;54;21004;-76
2022/07/20 05:57:20;;;;;;;5.40;2.25;;;25.20;42.80;;;;;;2414079;53;21548;-71
2022/07/20 05:59:58;;;;;;;4.97;2.45;;;25.20;42.70;;;;;;2422888;52;20941;-71
2022/07/20 06:02:25;;;;;;;4.60;2.37;;;25.30;43.10;;;;;;2587381;52;21422;-71
2022/07/20 06:04:53;;;;;;;4.47;2.50;;;25.40;43.00;;;;;;2344281;54;20936;-75
2022/07/20 06:07:19;;;;;;;4.03;2.42;;;25.50;43.10;;;;;;2343793;54;20897;-72
2022/07/20 06:09:46;;;;;;;4.53;2.70;;;25.50;43.00;;;;;;2343903;54;20941;-73
2022/07/20 06:12:13;;;;;;;5.03;2.70;;;25.60;43.00;;;;;;2340907;54;20995;-72
2022/07/20 06:14:49;;;;;;;4.32;2.70;;;25.70;43.10;;;;;;2338233;54;20996;-73
2022/07/20 06:17:15;;;;;;;8.10;2.60;;;25.80;43.20;;;;;;2410129;53;21015;-72
2022/07/20 06:19:42;;;;;;;3.70;2.17;;;25.90;43.10;;;;;;2342476;53;21349;-72
2022/07/20 06:22:39;;;;;;;4.55;2.30;;;26.00;43.20;;;;;;2567213;52;21809;-73
2022/07/20 06:25:09;;;;;;;5.30;2.67;;;26.20;43.90;;;;;;2343975;54;20956;-71
2022/07/20 06:27:37;;;;;;;3.60;2.47;;;26.20;43.40;;;;;;2589228;52;20917;-77
2022/07/20 06:30:07;;;;;;;4.05;2.40;;;26.30;43.50;;;;;;2344167;54;21937;-72
2022/07/20 06:32:33;;;;;;;3.78;2.35;;;26.40;43.50;;;;;;2343875;53;20928;-74
2022/07/20 06:35:00;;;;;;;4.07;2.15;;;26.50;43.70;;;;;;2344361;54;20928;-75
2022/07/20 06:37:28;;;;;;;3.42;2.30;;;26.60;43.80;;;;;;2590587;52;20913;-72
2022/07/20 06:39:54;;;;;;;4.32;2.50;;;26.70;43.90;;;;;;2344526;54;21016;-72
2022/07/20 06:42:21;;;;;;;3.72;2.87;;;26.90;43.90;;;;;;2347711;52;20936;-71
2022/07/20 06:44:48;;;;;;;3.58;2.62;;;27.00;44.20;;;;;;2590089;52;20933;-72
2022/07/20 06:47:15;;;;;;;6.20;2.83;;;27.10;44.20;;;;;;2590451;52;20976;-71
2022/07/20 06:49:49;;;;;;;4.62;3.12;;;27.20;44.20;;;;;;2349443;53;20869;-73
2022/07/20 06:52:16;;;;;;;3.95;3.12;;;27.40;44.50;;;;;;2589167;52;20972;-72
2022/07/20 06:54:48;;;;;;;6.50;3.22;;;27.60;44.40;;;;;;2342192;54;21046;-72
2022/07/20 06:57:14;;;;;;;;;;;27.70;44.50;;;;;;2338937;54;21050;-75
2022/07/20 06:59:40;;;;;;;4.55;2.25;;;27.90;44.30;;;;;;2574979;53;20380;-73
2022/07/20 07:02:25;;;;;;;3.95;3.10;;;28.00;44.10;;;;;;2518190;52;20940;-70
2022/07/20 07:04:55;;;;;;;4.53;3.30;;;28.30;44.50;;;;;;2372634;53;21564;-70
2022/07/20 07:07:21;;;;;;;4.68;3.12;;;28.40;44.20;;;;;;2318011;54;20999;-71
2022/07/20 07:09:49;;;;;;;7.40;3.25;;;28.60;44.10;;;;;;2320663;54;21812;-73
2022/07/20 07:12:34;;;;;;;5.45;3.30;;;28.80;44.70;;;;;;2317617;54;21005;-71
2022/07/20 07:15:03;;;;;;;5.53;3.60;;;29.00;44.30;;;;;;2317091;54;20929;-74
2022/07/20 07:17:30;;;;;;;4.60;3.55;;;29.20;44.00;;;;;;2316243;54;21013;-71
2022/07/20 07:20:00;;;;;;;5.20;3.75;;;29.30;43.80;;;;;;2316393;54;20941;-75
2022/07/20 07:22:27;;;;;;;4.22;3.53;;;29.50;43.70;;;;;;2309167;54;21054;-71
2022/07/20 07:24:56;;;;;;;4.45;3.53;;;29.70;43.80;;;;;;2339939;55;20932;-70
2022/07/20 07:27:23;;;;;;;5.07;3.78;;;29.90;43.70;;;;;;2313211;53;20970;-72
2022/07/20 07:29:49;;;;;;;5.32;3.92;;;30.10;43.60;;;;;;2317284;53;20919;-73
2022/07/20 07:32:15;;;;;;;7.90;4.72;;;30.20;43.40;;;;;;2316819;53;20939;-72
2022/07/20 07:34:45;;;;;;;5.78;4.78;;;30.40;43.30;;;;;;2328936;54;20982;-73
2022/07/20 07:37:11;;;;;;;5.78;4.43;;;30.60;43.10;;;;;;2316683;54;21001;-72
2022/07/20 07:39:38;;;;;;;7.03;4.78;;;30.80;42.90;;;;;;2329383;53;21416;-72
2022/07/20 07:42:04;;;;;;;6.85;4.18;;;30.90;42.80;;;;;;2316742;53;20962;-72
2022/07/20 07:44:36;;;;;;;6.53;4.60;;;31.10;42.70;;;;;;2307545;53;20939;-74
2022/07/20 07:47:04;;;;;;;6.82;4.78;;;31.30;42.60;;;;;;2317974;53;21015;-71
2022/07/20 07:49:31;;;;;;;7.62;5.37;;;31.40;42.50;;;;;;2302627;56;20965;-75
2022/07/20 07:51:58;;;;;;;8.20;4.93;;;31.60;42.30;;;;;;2333074;54;20933;-70
2022/07/20 07:54:24;;;;;;;9.05;5.60;;;31.70;42.20;;;;;;2315356;54;20955;-74
2022/07/20 07:56:52;;;;;;;7.30;4.78;;;31.90;42.10;;;;;;2308306;55;20974;-72
2022/07/20 07:59:19;;;;;;;7.05;5.18;;;32.00;42.00;;;;;;2448200;53;21482;-76
2022/07/20 08:01:56;;;;;;;7.68;4.87;;;32.10;41.80;;;;;;2304693;54;21406;-72
2022/07/20 08:04:23;;;;;;;5.97;4.85;;;32.30;41.70;;;;;;2306510;54;20925;-75
2022/07/20 08:06:50;;;;;;;6.82;5.18;;;32.40;41.40;;;;;;2384148;53;21032;-72
2022/07/20 08:09:17;;;;;;;8.07;6.03;;;32.50;41.30;;;;;;2300154;54;20967;-75
2022/07/20 08:11:45;;;;;;;6.40;5.60;;;32.60;41.10;;;;;;2498145;53;22030;-70
2022/07/20 08:14:16;;;;;;;7.45;5.93;;;32.80;41.60;;;;;;2322140;55;20936;-71
2022/07/20 08:16:43;;;;;;;;;;;32.80;40.70;;;;;;2426760;53;20943;-71
2022/07/20 08:19:13;;;;;;;6.32;4.60;;;33.00;40.70;;;;;;2309088;54;20131;-72
2022/07/20 08:21:40;;;;;;;6.43;5.35;;;33.00;40.50;;;;;;2309038;54;20999;-72
2022/07/20 08:24:27;;;;;;;6.22;5.30;;;33.10;40.60;;;;;;2306475;54;20935;-72
2022/07/20 08:26:57;;;;;;;6.70;4.93;;;33.20;40.40;;;;;;2576796;53;20993;-72
2022/07/20 08:29:23;;;;;;;6.47;5.60;;;33.30;40.50;;;;;;2325021;54;22549;-70
2022/07/20 08:31:50;;;;;;;9.07;5.90;;;33.40;40.30;;;;;;2326664;54;20940;-71
2022/07/20 08:34:16;;;;;;;6.85;5.25;;;33.50;40.10;;;;;;2339261;54;20999;-72
2022/07/20 08:36:47;;;;;;;6.07;4.70;;;33.60;39.90;;;;;;2407610;53;20980;-72
2022/07/20 08:39:14;;;;;;;7.28;5.87;;;33.70;39.80;;;;;;2395148;53;20944;-72
2022/07/20 08:41:44;;;;;;;6.22;5.47;;;33.70;39.60;;;;;;2340055;54;21469;-72
2022/07/20 08:44:11;;;;;;;8.60;6.18;;;33.80;39.60;;;;;;2327865;54;21001;-73
2022/07/20 08:46:38;;;;;;;7.40;5.72;;;33.90;39.30;;;;;;2333249;54;20928;-72
2022/07/20 08:49:05;;;;;;;6.75;6.05;;;33.90;39.20;;;;;;2323786;54;20925;-71
2022/07/20 08:51:31;;;;;;;8.88;6.55;;;34.00;39.10;;;;;;2331174;54;21001;-72
2022/07/20 08:53:59;;;;;;;7.00;5.72;;;34.00;38.90;;;;;;2336959;54;20936;-72
2022/07/20 08:56:26;;;;;;;7.35;5.78;;;34.10;38.90;;;;;;2565761;53;20941;-74
2022/07/20 08:58:53;;;;;;;8.90;5.97;;;34.20;39.00;;;;;;2329637;54;21083;-71
2022/07/20 09:01:25;;;;;;;7.82;5.78;;;34.20;38.90;;;;;;2433400;53;20973;-70
2022/07/20 09:04:11;;;;;;;6.82;5.40;;;34.20;38.70;;;;;;2560770;53;20988;-71
2022/07/20 09:06:47;;;;;;;5.95;4.78;;;34.30;37.90;;;;;;2311651;53;21422;-71
2022/07/20 09:09:16;;;;;;;6.70;4.87;;;34.40;37.70;;;;;;2561854;53;21456;-74
2022/07/20 09:11:43;;;;;;;5.97;4.60;;;34.40;37.70;;;;;;2310097;54;21119;-73
2022/07/20 09:14:11;;;;;;;5.50;4.57;;;34.50;37.60;;;;;;2333777;54;21001;-71
2022/07/20 09:16:48;;;;;;;6.10;4.60;;;34.50;38.00;;;;;;2586383;53;20955;-73
2022/07/20 09:19:15;;;;;;;5.37;4.30;;;34.50;37.20;;;;;;2341086;54;20913;-74
2022/07/20 09:21:46;;;;;;;6.15;4.80;;;34.60;37.70;;;;;;2323758;54;20925;-70
2022/07/20 09:24:12;;;;;;;5.10;4.50;;;34.60;36.90;;;;;;2559568;53;21886;-71
2022/07/20 09:26:40;;;;;;;6.72;4.32;;;34.70;36.80;;;;;;2341017;54;20964;-71
2022/07/20 09:29:16;;;;;;;6.20;4.57;;;34.80;36.60;;;;;;2343016;54;20925;-70
2022/07/20 09:31:42;;;;;;;7.37;4.57;;;34.80;36.00;;;;;;2340890;54;20973;-71
2022/07/20 09:34:12;;;;;;;6.07;4.60;;;34.80;36.20;;;;;;2342240;54;20929;-74
2022/07/20 09:36:48;;;;;;;6.65;4.43;;;34.90;36.00;;;;;;2577388;53;20977;-71
2022/07/20 09:39:20;;;;;;;7.35;4.55;;;34.90;36.10;;;;;;2330877;54;20920;-74
2022/07/20 09:41:53;;;;;;;5.90;4.62;;;35.00;36.00;;;;;;2316934;54;20965;-71
2022/07/20 09:44:21;;;;;;;7.30;4.55;;;35.00;35.90;;;;;;2547162;54;20947;-70
2022/07/20 09:46:47;;;;;;;5.37;4.35;;;35.10;35.90;;;;;;2547014;53;20960;-73
2022/07/20 09:49:14;;;;;;;5.60;4.53;;;35.10;35.70;;;;;;2329925;54;21569;-73
2022/07/20 09:51:46;;;;;;;5.12;4.15;;;35.20;35.60;;;;;;2415437;53;21108;-75
2022/07/20 09:54:24;;;;;;;7.07;4.00;;;35.20;35.60;;;;;;2331736;54;20924;-71
2022/07/20 09:57:03;;;;;;;5.53;4.07;;;35.20;35.40;;;;;;2544630;53;21477;-74
2022/07/20 09:59:29;;;;;;;5.37;4.15;;;35.30;35.10;;;;;;2325848;54;20921;-71
2022/07/20 10:01:56;;;;;;;5.50;4.40;;;35.30;35.10;;;;;;2319772;54;20965;-70
2022/07/20 10:04:22;;;;;;;4.65;3.70;;;35.30;35.10;;;;;;2337072;54;21002;-74
2022/07/20 10:06:52;;;;;;;6.97;4.22;;;35.40;34.90;;;;;;2318674;54;21841;-75
2022/07/20 10:09:18;;;;;;;4.85;3.75;;;35.40;34.70;;;;;;2327915;54;21072;-71
2022/07/20 10:11:48;;;;;;;5.82;4.57;;;35.40;34.60;;;;;;2400250;54;21390;-73
2022/07/20 10:14:17;;;;;;;7.05;4.60;;;35.50;34.50;;;;;;2330625;54;20949;-71
2022/07/20 10:16:49;;;;;;;7.65;4.95;;;35.50;34.50;;;;;;2327799;54;20929;-74
2022/07/20 10:19:15;;;;;;;8.77;4.78;;;35.50;34.20;;;;;;2342863;54;21038;-76
2022/07/20 10:21:49;;;;;;;6.55;4.45;;;35.50;34.10;;;;;;2331197;54;20948;-71
2022/07/20 10:25:25;;;;;;;6.60;4.30;;;35.60;34.20;;;;;;2323970;53;21465;-70
2022/07/20 10:27:51;;;;;;;5.00;4.03;;;35.60;34.10;;;;;;2341854;54;20929;-75
2022/07/20 10:30:19;;;;;;;5.37;3.97;;;35.60;34.10;;;;;;2328499;54;20997;-71
2022/07/20 10:32:57;;;;;;;6.18;4.45;;;35.60;34.20;;;;;;2476395;53;21099;-71
2022/07/20 10:35:41;;;;;;;5.45;4.10;;;35.60;34.10;;;;;;2441059;53;20929;-71
2022/07/20 10:38:08;;;;;;;6.82;3.85;;;35.60;34.00;;;;;;2544059;53;21471;-73
2022/07/20 10:41:31;;;;;;;5.12;3.83;;;35.60;34.20;;;;;;2305071;55;20977;-73
2022/07/20 10:44:49;;;;;;;5.22;3.80;;;35.60;34.20;;;;;;2337907;55;21362;-71
2022/07/20 10:48:55;;;;;;;5.32;3.70;;;35.70;33.80;;;;;;2330825;54;21813;-71
2022/07/20 10:51:22;;;;;;;5.12;2.97;;;35.70;33.90;;;;;;2337846;54;21001;-71
2022/07/20 10:53:49;;;;;;;4.25;3.15;;;35.70;33.80;;;;;;2341960;54;20937;-71
2022/07/20 10:56:28;;;;;;;4.70;3.40;;;35.70;33.80;;;;;;2330765;54;20952;-71
2022/07/20 10:59:10;;;;;;;5.85;4.10;;;35.70;33.80;;;;;;2353925;53;21366;-72
2022/07/20 11:01:44;;;;;;;5.43;3.62;;;35.70;33.90;;;;;;2321903;54;21002;-75
2022/07/20 11:04:11;;;;;;;5.75;3.85;;;35.70;33.70;;;;;;2396794;53;20931;-74
2022/07/20 11:06:40;;;;;;;4.28;3.55;;;35.70;33.80;;;;;;2325625;54;21201;-74
2022/07/20 11:09:11;;;;;;;5.32;3.67;;;35.70;33.90;;;;;;2319406;54;21393;-73
2022/07/20 11:11:37;;;;;;;4.85;3.72;;;35.70;33.80;;;;;;2356616;53;21052;-74
2022/07/20 11:14:05;;;;;;;5.62;4.03;;;35.70;33.80;;;;;;2551951;53;21018;-71
2022/07/20 11:16:34;;;;;;;6.28;3.67;;;35.70;33.70;;;;;;2311561;55;21066;-71
2022/07/20 11:19:01;;;;;;;5.90;3.65;;;35.70;33.70;;;;;;2464398;53;20960;-71
2022/07/20 11:22:09;;;;;;;4.60;3.50;;;35.70;33.70;;;;;;2551335;53;20999;-73
2022/07/20 11:24:36;;;;;;;4.05;2.97;;;35.80;33.70;;;;;;2554717;53;21019;-71
2022/07/20 11:27:14;;;;;;;5.47;3.80;;;35.80;33.80;;;;;;2325182;53;21495;-71
2022/07/20 11:29:52;;;;;;;5.53;3.50;;;35.80;33.70;;;;;;2377722;53;20975;-72
2022/07/20 11:32:19;;;;;;;5.12;3.62;;;35.80;33.70;;;;;;2558436;52;20988;-71
2022/07/20 11:35:11;;;;;;;6.12;3.83;;;35.80;33.80;;;;;;2312861;54;21926;-71
2022/07/20 11:37:38;;;;;;;5.72;3.75;;;35.80;33.90;;;;;;2436740;53;21749;-71
2022/07/20 11:40:06;;;;;;;6.45;3.70;;;35.70;33.90;;;;;;2527401;53;21385;-71
2022/07/20 11:43:07;;;;;;;4.90;3.20;;;35.80;34.00;;;;;;2318741;53;21053;-72
2022/07/20 11:45:34;;;;;;;4.78;3.83;;;35.80;34.40;;;;;;2326041;54;20955;-72
2022/07/20 11:48:03;;;;;;;5.93;3.97;;;35.70;34.10;;;;;;2314279;53;21456;-71
2022/07/20 11:50:50;;;;;;;5.25;3.85;;;35.70;34.10;;;;;;2329180;54;20958;-77
2022/07/20 11:54:45;;;;;;;4.97;3.72;;;35.70;34.10;;;;;;2327502;53;21027;-74
2022/07/20 11:57:12;;;;;;;4.05;2.87;;;35.70;34.30;;;;;;2374223;53;20927;-72
2022/07/20 11:59:45;;;;;;;5.25;3.33;;;35.70;34.30;;;;;;2310280;53;21761;-71
2022/07/20 12:02:11;;;;;;;5.43;4.18;;;35.50;34.20;;;;;;2553442;53;21019;-72
2022/07/20 12:04:44;;;;;;;4.97;3.90;;;35.60;34.50;;;;;;2318541;53;20949;-70
2022/07/20 12:09:57;;;;;;;8.88;4.37;;;35.50;34.70;;;;;;2315517;54;21562;-71
2022/07/20 12:12:45;;;;;;;7.43;4.15;;;35.50;34.80;;;;;;2405223;53;21011;-75
2022/07/20 12:16:04;;;;;;;4.93;3.50;;;35.50;35.00;;;;;;2315530;54;20963;-71
2022/07/20 12:18:47;;;;;;;4.53;3.67;;;35.50;35.30;;;;;;2548076;53;21791;-75
2022/07/20 12:21:39;;;;;;;5.75;4.72;;;35.40;35.20;;;;;;2319963;54;20952;-76
2022/07/20 12:24:07;;;;;;;5.70;5.03;;;35.40;35.60;;;;;;2395494;53;20959;-72
2022/07/20 12:26:35;;;;;;;7.50;5.18;;;35.40;35.40;;;;;;2343861;53;21027;-71
2022/07/20 12:29:29;;;;;;;7.53;5.60;;;35.40;35.50;;;;;;2513579;53;21596;-71
2022/07/20 12:32:00;;;;;;;12.52;6.40;;;35.40;35.60;;;;;;2319182;54;21019;-73
2022/07/20 12:34:26;;;;;;;8.93;6.22;;;35.40;35.60;;;;;;2391074;53;20947;-72
2022/07/20 12:36:54;;;;;;;10.35;7.40;;;35.40;35.60;;;;;;2315763;53;20923;-75
2022/07/20 12:39:47;;;;;;;9.70;6.65;;;35.50;35.50;;;;;;2430328;53;21077;-72
2022/07/20 12:42:23;;;;;;;9.18;6.65;;;35.50;35.40;;;;;;2315324;53;21067;-71
2022/07/20 12:45:05;;;;;;;7.85;5.55;;;35.50;35.00;;;;;;2471114;53;20944;-72
2022/07/20 12:47:31;;;;;;;9.18;6.05;;;35.50;35.00;;;;;;2373732;53;21064;-77
2022/07/20 12:50:13;;;;;;;;;;;35.50;35.00;;;;;;2328024;54;20961;-72
2022/07/20 12:53:14;;;;;;;7.25;5.20;;;35.60;35.00;;;;;;2341319;54;20119;-74
2022/07/20 12:55:41;;;;;;;9.05;5.75;;;35.60;34.70;;;;;;2588448;53;21781;-71
2022/07/20 12:58:07;;;;;;;7.90;5.75;;;35.60;34.60;;;;;;2342195;54;21084;-76
2022/07/20 13:00:34;;;;;;;7.75;6.07;;;35.60;34.60;;;;;;2341134;54;21008;-70
2022/07/20 13:03:00;;;;;;;7.95;5.85;;;35.60;34.40;;;;;;2342485;54;20999;-72
2022/07/20 13:05:26;;;;;;;8.40;6.82;;;35.60;34.40;;;;;;2547048;53;20929;-72
2022/07/20 13:07:53;;;;;;;8.88;6.18;;;35.60;34.30;;;;;;2343075;54;20998;-71
2022/07/20 13:11:06;;;;;;;7.85;5.80;;;35.60;34.40;;;;;;2341672;54;21015;-75
2022/07/20 13:13:38;;;;;;;7.65;5.18;;;35.60;34.40;;;;;;2323353;53;21009;-71
2022/07/20 13:16:08;;;;;;;6.97;5.12;;;35.70;34.40;;;;;;2342189;54;21729;-75
2022/07/20 13:18:35;;;;;;;6.70;5.72;;;35.70;34.50;;;;;;2342624;54;21080;-71
2022/07/20 13:21:02;;;;;;;7.10;5.35;;;35.70;34.50;;;;;;2341678;54;21247;-71
2022/07/20 13:23:29;;;;;;;7.22;5.50;;;35.80;34.60;;;;;;2328752;54;21901;-75